createdAt,value
2018-11-14T00:00:26.429Z,23.93
2018-11-14T00:02:55.510Z,19.93
2018-11-14T00:05:24.317Z,22.80
2018-11-14T00:07:53.205Z,29.47
2018-11-14T00:10:22.039Z,20.90
2018-11-14T00:12:50.817Z,24.17
2018-11-14T00:15:20.904Z,26.57
2018-11-14T00:17:50.398Z,23.13
2018-11-14T00:20:19.205Z,22.03
2018-11-14T00:22:49.056Z,24.20
2018-11-14T00:25:17.935Z,26.07
2018-11-14T00:27:46.699Z,29.80
2018-11-14T00:30:19.878Z,26.57
2018-11-14T00:32:48.590Z,23.10
2018-11-14T00:35:17.410Z,29.47
2018-11-14T00:37:46.877Z,24.87
2018-11-14T00:40:16.548Z,23.63
2018-11-14T00:42:45.999Z,25.00
2018-11-14T00:45:16.322Z,26.40
2018-11-14T00:47:46.157Z,29.50
2018-11-14T00:50:15.873Z,25.93
2018-11-14T00:52:45.145Z,29.73
2018-11-14T00:55:22.549Z,22.43
2018-11-14T00:57:52.437Z,28.77
2018-11-14T01:00:24.555Z,27.43
2018-11-14T01:02:53.663Z,26.97
2018-11-14T01:05:22.488Z,33.60
2018-11-14T01:07:51.332Z,31.70
2018-11-14T01:10:21.361Z,35.10
2018-11-14T01:12:50.778Z,33.27
2018-11-14T01:15:20.675Z,32.23
2018-11-14T01:17:49.559Z,24.23
2018-11-14T01:20:19.583Z,30.47
2018-11-14T01:22:48.709Z,30.40
2018-11-14T01:25:18.178Z,29.17
2018-11-14T01:27:47.225Z,26.37
2018-11-14T01:30:18.998Z,32.97
2018-11-14T01:32:48.473Z,31.23
2018-11-14T01:35:17.646Z,26.90
2018-11-14T01:37:46.474Z,32.90
2018-11-14T01:40:19.851Z,38.40
2018-11-14T01:42:49.717Z,34.40
2018-11-14T01:45:24.143Z,35.60
2018-11-14T01:47:52.922Z,35.63
2018-11-14T01:50:21.733Z,39.73
2018-11-14T01:52:50.502Z,36.87
2018-11-14T01:55:20.479Z,37.23
2018-11-14T01:57:49.211Z,37.77
2018-11-14T02:00:20.640Z,35.30
2018-11-14T02:02:49.473Z,33.90
2018-11-14T02:05:18.257Z,38.90
2018-11-14T02:07:47.072Z,35.63
2018-11-14T02:10:18.105Z,38.93
2018-11-14T02:12:47.227Z,38.83
2018-11-14T02:15:18.017Z,38.80
2018-11-14T02:17:46.861Z,40.30
2018-11-14T02:20:15.684Z,40.60
2018-11-14T02:22:45.343Z,38.53
2018-11-14T02:25:14.799Z,38.73
2018-11-14T02:27:43.582Z,39.80
2018-11-14T02:30:15.564Z,41.20
2018-11-14T02:32:44.327Z,41.20
2018-11-14T02:35:13.185Z,38.20
2018-11-14T02:37:43.102Z,39.33
2018-11-14T02:40:13.839Z,38.10
2018-11-14T02:42:42.666Z,38.10
2018-11-14T02:45:11.999Z,39.83
2018-11-14T02:47:40.835Z,37.03
2018-11-14T02:50:11.004Z,43.03
2018-11-14T02:52:39.730Z,33.43
2018-11-14T02:55:09.922Z,38.30
2018-11-14T02:57:38.746Z,35.23
2018-11-14T03:00:09.845Z,38.13
2018-11-14T03:02:38.660Z,43.23
2018-11-14T03:05:07.673Z,35.17
2018-11-14T03:07:36.493Z,37.50
2018-11-14T03:10:07.218Z,37.53
2018-11-14T03:12:36.063Z,45.27
2018-11-14T03:15:06.506Z,37.00
2018-11-14T03:17:35.305Z,38.50
2018-11-14T03:20:04.863Z,42.73
2018-11-14T03:22:33.647Z,48.73
2018-11-14T03:25:02.405Z,41.53
2018-11-14T03:27:31.217Z,47.77
2018-11-14T03:30:00.014Z,39.07
2018-11-14T03:32:28.805Z,40.70
2018-11-14T03:34:57.592Z,38.97
2018-11-14T03:37:26.423Z,36.70
2018-11-14T03:39:55.156Z,41.27
2018-11-14T03:42:23.908Z,41.00
2018-11-14T03:44:52.709Z,34.87
2018-11-14T03:47:21.551Z,42.17
2018-11-14T03:49:50.378Z,34.17
2018-11-14T03:52:19.177Z,38.47
2018-11-14T03:54:47.928Z,39.33
2018-11-14T03:57:16.703Z,38.63
2018-11-14T03:59:45.447Z,37.63
2018-11-14T04:02:14.229Z,37.17
2018-11-14T04:04:42.998Z,32.70
2018-11-14T04:07:11.805Z,33.53
2018-11-14T04:09:40.654Z,39.27
2018-11-14T04:12:09.453Z,37.00
2018-11-14T04:14:38.218Z,29.87
2018-11-14T04:17:07.035Z,35.97
2018-11-14T04:19:35.818Z,38.97
2018-11-14T04:22:04.668Z,31.93
2018-11-14T04:24:34.061Z,29.50
2018-11-14T04:27:03.578Z,30.53
2018-11-14T04:29:32.544Z,26.10
2018-11-14T04:32:01.273Z,33.20
2018-11-14T04:34:30.148Z,32.53
2018-11-14T04:36:58.953Z,35.13
2018-11-14T04:39:27.781Z,34.03
2018-11-14T04:41:56.566Z,32.73
2018-11-14T04:44:25.333Z,32.50
2018-11-14T04:46:54.153Z,36.70
2018-11-14T04:49:22.968Z,34.47
2018-11-14T04:51:51.736Z,37.30
2018-11-14T04:54:20.629Z,42.33
2018-11-14T04:56:49.449Z,38.97
2018-11-14T04:59:18.232Z,40.30
2018-11-14T05:01:46.991Z,34.63
2018-11-14T05:04:15.889Z,42.83
2018-11-14T05:06:44.672Z,44.33
2018-11-14T05:09:13.610Z,45.83
2018-11-14T05:11:42.770Z,39.47
2018-11-14T05:14:11.796Z,50.80
2018-11-14T05:16:40.555Z,38.13
2018-11-14T05:19:09.301Z,40.93
2018-11-14T05:21:38.146Z,44.27
2018-11-14T05:24:06.931Z,36.03
2018-11-14T05:26:35.738Z,47.63
2018-11-14T05:29:04.567Z,38.33
2018-11-14T05:31:33.332Z,42.30
2018-11-14T05:34:02.113Z,43.00
2018-11-14T05:36:30.933Z,36.70
2018-11-14T05:38:59.713Z,33.40
2018-11-14T05:41:28.473Z,35.47
2018-11-14T05:43:57.228Z,33.57
2018-11-14T05:46:26.012Z,31.30
2018-11-14T05:48:54.828Z,29.83
2018-11-14T05:51:23.580Z,31.83
2018-11-14T05:53:52.420Z,39.70
2018-11-14T05:56:21.197Z,35.17
2018-11-14T05:58:50.008Z,28.77
2018-11-14T06:01:18.809Z,28.07
2018-11-14T06:03:47.567Z,31.20
2018-11-14T06:06:16.380Z,27.93
2018-11-14T06:08:45.182Z,29.47
2018-11-14T06:11:13.960Z,29.57
2018-11-14T06:13:42.728Z,26.00
2018-11-14T06:16:11.449Z,23.00
2018-11-14T06:18:40.343Z,31.20
2018-11-14T06:21:09.126Z,24.27
2018-11-14T06:23:37.949Z,25.00
2018-11-14T06:26:06.720Z,27.10
2018-11-14T06:28:35.520Z,18.47
2018-11-14T06:31:04.301Z,23.43
2018-11-14T06:33:33.113Z,26.83
2018-11-14T06:36:02.002Z,23.17
2018-11-14T06:38:43.190Z,22.47
2018-11-14T06:41:12.381Z,23.40
2018-11-14T06:43:41.193Z,24.87
2018-11-14T06:46:09.993Z,25.73
2018-11-14T06:48:38.774Z,25.67
2018-11-14T06:51:07.521Z,24.60
2018-11-14T06:53:36.280Z,29.40
2018-11-14T06:56:05.310Z,20.43
2018-11-14T06:58:34.164Z,22.67
2018-11-14T07:01:02.993Z,21.87
2018-11-14T07:03:32.008Z,30.23
2018-11-14T07:06:00.805Z,23.90
2018-11-14T07:08:29.425Z,26.60
2018-11-14T07:10:58.258Z,30.67
2018-11-14T07:13:27.046Z,57.13
2018-11-14T07:15:55.905Z,48.53
2018-11-14T07:18:24.862Z,49.37
2018-11-14T07:20:53.693Z,47.70
2018-11-14T07:23:22.486Z,36.93
2018-11-14T07:25:52.621Z,39.27
2018-11-14T07:28:21.421Z,33.20
2018-11-14T07:30:50.260Z,27.20
2018-11-14T07:33:19.101Z,28.07
2018-11-14T07:35:47.924Z,25.10
2018-11-14T07:38:36.556Z,17.37
2018-11-14T07:41:06.854Z,24.03
2018-11-14T07:43:36.457Z,25.50
2018-11-14T07:46:05.799Z,29.07
2018-11-14T07:48:35.049Z,30.97
2018-11-14T07:51:04.007Z,23.67
2018-11-14T07:53:33.269Z,22.50
2018-11-14T07:56:02.111Z,20.10
2018-11-14T07:58:31.557Z,18.87
2018-11-14T08:01:00.393Z,26.00
2018-11-14T08:03:29.176Z,23.50
2018-11-14T08:05:58.230Z,22.27
2018-11-14T08:08:27.146Z,19.43
2018-11-14T08:10:55.969Z,19.63
2018-11-14T08:13:26.029Z,21.00
2018-11-14T08:16:00.284Z,16.67
2018-11-14T08:18:29.665Z,23.00
2018-11-14T08:20:59.585Z,19.87
2018-11-14T08:23:28.653Z,17.47
2018-11-14T08:25:58.071Z,22.10
2018-11-14T08:28:27.341Z,15.80
2018-11-14T08:30:56.099Z,17.37
2018-11-14T08:33:24.913Z,20.07
2018-11-14T08:35:59.495Z,20.70
2018-11-14T08:38:28.273Z,17.63
2018-11-14T08:40:57.310Z,16.53
2018-11-14T08:43:26.068Z,13.73
2018-11-14T08:45:55.405Z,14.53
2018-11-14T08:48:24.309Z,16.97
2018-11-14T08:50:53.139Z,15.27
2018-11-14T08:53:21.973Z,18.47
2018-11-14T08:55:51.657Z,32.13
2018-11-14T08:58:21.929Z,22.13
2018-11-14T09:03:22.493Z,13.23
2018-11-14T09:05:53.206Z,14.93
2018-11-14T09:08:23.435Z,11.67
2018-11-14T09:10:54.688Z,13.67
2018-11-14T09:13:25.097Z,8.80
2018-11-14T09:15:55.640Z,12.40
2018-11-14T09:18:27.485Z,11.77
2018-11-14T09:20:58.497Z,12.07
2018-11-14T09:23:30.257Z,13.20
2018-11-14T09:25:59.201Z,12.13
2018-11-14T09:28:28.024Z,14.30
2018-11-14T09:30:56.936Z,11.57
2018-11-14T09:33:25.739Z,14.97
2018-11-14T09:35:54.508Z,11.53
2018-11-14T09:38:23.293Z,11.10
2018-11-14T09:40:52.198Z,13.33
2018-11-14T09:43:21.002Z,13.87
2018-11-14T09:45:49.834Z,13.60
2018-11-14T09:48:18.645Z,10.60
2018-11-14T09:50:47.410Z,13.63
2018-11-14T09:53:16.274Z,14.33
2018-11-14T09:55:45.030Z,13.23
2018-11-14T09:58:13.870Z,10.50
2018-11-14T10:00:42.634Z,12.87
2018-11-14T10:03:15.153Z,12.20
2018-11-14T10:05:44.060Z,10.23
2018-11-14T10:08:12.842Z,11.57
2018-11-14T10:10:41.712Z,14.67
2018-11-14T10:13:10.491Z,10.90
2018-11-14T10:15:39.375Z,12.53
2018-11-14T10:18:08.071Z,14.80
2018-11-14T10:20:36.937Z,10.57
2018-11-14T10:23:05.963Z,14.60
2018-11-14T10:25:34.772Z,11.63
2018-11-14T10:28:03.621Z,13.67
2018-11-14T10:30:32.397Z,11.13
2018-11-14T10:33:01.158Z,17.53
2018-11-14T10:35:30.053Z,13.60
2018-11-14T10:37:58.846Z,12.90
2018-11-14T10:40:28.521Z,13.27
2018-11-14T10:42:57.418Z,26.67
2018-11-14T10:45:26.858Z,10.37
2018-11-14T10:47:55.823Z,9.33
2018-11-14T10:50:25.840Z,8.53
2018-11-14T10:52:54.645Z,9.40
2018-11-14T10:55:23.749Z,8.00
2018-11-14T10:57:52.850Z,13.10
2018-11-14T11:00:29.789Z,11.87
2018-11-14T11:03:04.829Z,11.30
2018-11-14T11:05:38.870Z,7.50
2018-11-14T11:08:12.970Z,25.57
2018-11-14T11:10:47.187Z,11.90
2018-11-14T11:13:21.236Z,16.43
2018-11-14T11:15:55.590Z,10.83
2018-11-14T11:18:26.861Z,12.27
2018-11-14T11:20:55.660Z,11.10
2018-11-14T11:23:24.599Z,11.43
2018-11-14T11:25:53.585Z,7.93
2018-11-14T11:28:22.560Z,7.47
2018-11-14T11:30:51.434Z,9.73
2018-11-14T11:33:20.258Z,11.40
2018-11-14T11:35:49.086Z,11.20
2018-11-14T11:38:18.010Z,5.53
2018-11-14T11:40:46.687Z,9.23
2018-11-14T11:43:15.497Z,6.00
2018-11-14T11:45:44.299Z,9.37
2018-11-14T11:48:13.962Z,7.27
2018-11-14T11:50:42.785Z,7.30
2018-11-14T11:53:13.740Z,9.60
2018-11-14T11:55:42.496Z,10.97
2018-11-14T11:58:11.320Z,7.13
2018-11-14T12:00:40.283Z,7.83
2018-11-14T12:03:08.949Z,10.00
2018-11-14T12:05:37.831Z,8.53
2018-11-14T12:08:06.681Z,7.20
2018-11-14T12:10:35.436Z,9.07
2018-11-14T12:13:04.227Z,8.13
2018-11-14T12:15:32.996Z,2.87
2018-11-14T12:18:01.768Z,4.63
2018-11-14T12:20:30.540Z,6.87
2018-11-14T12:22:59.313Z,9.63
2018-11-14T12:25:28.132Z,12.43
2018-11-14T12:27:56.915Z,10.33
2018-11-14T12:30:25.807Z,11.80
2018-11-14T12:32:54.636Z,8.37
2018-11-14T12:35:23.424Z,5.57
2018-11-14T12:37:52.204Z,8.43
2018-11-14T12:40:21.011Z,11.97
2018-11-14T12:42:49.832Z,11.43
2018-11-14T12:45:18.809Z,5.17
2018-11-14T12:47:47.604Z,13.57
2018-11-14T12:50:16.470Z,7.20
2018-11-14T12:52:45.334Z,7.30
2018-11-14T12:55:15.750Z,6.63
2018-11-14T12:57:44.671Z,15.63
2018-11-14T13:00:15.605Z,6.57
2018-11-14T13:02:44.445Z,9.13
2018-11-14T13:05:14.208Z,8.67
2018-11-14T13:07:43.285Z,5.67
2018-11-14T13:10:19.144Z,6.20
2018-11-14T13:12:48.862Z,5.80
2018-11-14T13:15:18.457Z,6.70
2018-11-14T13:17:47.213Z,6.57
2018-11-14T13:20:18.684Z,7.47
2018-11-14T13:22:47.659Z,6.37
2018-11-14T13:25:16.727Z,5.57
2018-11-14T13:27:46.944Z,9.03
2018-11-14T13:30:18.493Z,6.33
2018-11-14T13:32:47.974Z,9.40
2018-11-14T13:35:18.456Z,5.57
2018-11-14T13:37:47.969Z,10.37
2018-11-14T13:40:16.811Z,7.80
2018-11-14T13:42:45.665Z,7.10
2018-11-14T13:45:15.735Z,8.90
2018-11-14T13:47:44.851Z,6.30
2018-11-14T13:50:16.758Z,10.37
2018-11-14T13:52:45.640Z,10.07
2018-11-14T13:55:15.833Z,9.17
2018-11-14T13:57:45.810Z,6.83
2018-11-14T14:00:15.750Z,4.93
2018-11-14T14:02:44.717Z,8.97
2018-11-14T14:05:14.907Z,7.60
2018-11-14T14:07:43.739Z,8.67
2018-11-14T14:10:14.478Z,8.50
2018-11-14T14:12:44.488Z,8.53
2018-11-14T14:15:15.300Z,6.03
2018-11-14T14:17:45.745Z,8.70
2018-11-14T14:20:15.188Z,6.50
2018-11-14T14:22:44.719Z,6.00
2018-11-14T14:25:15.055Z,8.70
2018-11-14T14:27:43.837Z,8.13
2018-11-14T14:30:14.865Z,7.23
2018-11-14T14:32:44.775Z,9.43
2018-11-14T14:35:14.636Z,6.83
2018-11-14T14:37:43.418Z,13.67
2018-11-14T14:40:16.274Z,7.47
2018-11-14T14:42:45.388Z,8.43
2018-11-14T14:45:15.639Z,5.13
2018-11-14T14:47:44.430Z,8.53
2018-11-14T14:50:15.044Z,11.90
2018-11-14T14:52:44.363Z,5.27
2018-11-14T14:55:16.704Z,7.47
2018-11-14T14:57:46.205Z,8.73
2018-11-14T15:00:17.709Z,6.20
2018-11-14T15:02:46.525Z,7.17
2018-11-14T15:05:15.313Z,6.57
2018-11-14T15:07:44.211Z,11.30
2018-11-14T15:10:14.956Z,7.33
2018-11-14T15:12:43.837Z,11.37
2018-11-14T15:15:13.350Z,8.53
2018-11-14T15:17:42.292Z,6.00
2018-11-14T15:20:13.723Z,7.93
2018-11-14T15:22:43.213Z,4.90
2018-11-14T15:25:13.541Z,5.17
2018-11-14T15:27:43.015Z,8.10
2018-11-14T15:30:16.227Z,5.00
2018-11-14T15:32:45.108Z,9.83
2018-11-14T15:35:14.041Z,5.97
2018-11-14T15:37:42.852Z,4.00
2018-11-14T15:40:13.271Z,8.70
2018-11-14T15:42:42.132Z,5.17
2018-11-14T15:45:13.306Z,7.37
2018-11-14T15:47:42.213Z,6.07
2018-11-14T15:50:13.614Z,9.33
2018-11-14T15:52:43.605Z,6.40
2018-11-14T15:55:13.357Z,7.93
2018-11-14T15:57:42.227Z,5.63
2018-11-14T16:00:21.414Z,7.67
2018-11-14T16:02:50.228Z,8.20
2018-11-14T16:05:20.225Z,5.87
2018-11-14T16:07:50.178Z,8.27
2018-11-14T16:10:20.347Z,5.73
2018-11-14T16:12:49.141Z,6.40
2018-11-14T16:15:19.508Z,6.10
2018-11-14T16:17:48.305Z,8.87
2018-11-14T16:20:18.482Z,8.17
2018-11-14T16:22:47.318Z,6.63
2018-11-14T16:25:17.295Z,8.27
2018-11-14T16:27:47.039Z,9.20
2018-11-14T16:30:20.217Z,9.83
2018-11-14T16:32:50.198Z,6.10
2018-11-14T16:35:18.996Z,8.90
2018-11-14T16:37:47.765Z,9.63
2018-11-14T16:40:22.776Z,7.13
2018-11-14T16:42:52.470Z,10.40
2018-11-14T16:45:21.338Z,12.03
2018-11-14T16:47:50.119Z,9.47
2018-11-14T16:50:20.127Z,9.23
2018-11-14T16:52:49.101Z,8.63
2018-11-14T16:55:19.170Z,9.83
2018-11-14T16:57:48.655Z,13.17
2018-11-14T17:00:20.518Z,9.13
2018-11-14T17:02:49.384Z,9.77
2018-11-14T17:05:18.493Z,12.23
2018-11-14T17:07:47.356Z,9.87
2018-11-14T17:10:18.331Z,10.40
2018-11-14T17:12:48.273Z,8.30
2018-11-14T17:15:18.375Z,8.30
2018-11-14T17:17:47.205Z,9.10
2018-11-14T17:20:16.859Z,11.57
2018-11-14T17:22:46.277Z,10.47
2018-11-14T17:25:15.964Z,10.50
2018-11-14T17:27:45.170Z,10.80
2018-11-14T17:30:16.840Z,9.27
2018-11-14T17:32:45.725Z,9.30
2018-11-14T17:35:15.232Z,9.93
2018-11-14T17:37:44.909Z,8.70
2018-11-14T17:40:15.935Z,9.13
2018-11-14T17:42:45.403Z,8.40
2018-11-14T17:45:17.215Z,8.53
2018-11-14T17:47:46.438Z,9.03
2018-11-14T17:50:17.540Z,11.50
2018-11-14T17:52:46.997Z,12.53
2018-11-14T17:55:16.531Z,7.23
2018-11-14T17:57:45.263Z,11.10
2018-11-14T18:00:16.285Z,8.87
2018-11-14T18:02:45.450Z,10.57
2018-11-14T18:05:15.640Z,8.83
2018-11-14T18:07:45.279Z,9.07
2018-11-14T18:10:16.097Z,8.60
2018-11-14T18:12:45.738Z,9.83
2018-11-14T18:15:14.551Z,10.67
2018-11-14T18:17:43.566Z,11.40
2018-11-14T18:20:13.925Z,13.70
2018-11-14T18:22:43.700Z,11.30
2018-11-14T18:25:13.308Z,12.53
2018-11-14T18:27:42.337Z,12.33
2018-11-14T18:30:14.199Z,3.30
2018-11-14T18:32:43.198Z,1.37
2018-11-14T18:35:14.548Z,5.75
2018-11-14T18:37:44.591Z,19.27
2018-11-14T18:40:16.225Z,2.37
